Time;durP1;ratioP1;P1;durP2;ratioP2;P2;SDS_P1;SDS_P2;PMS_P1;PMS_P2;Temp;Humidity;BMP_temperature;BMP_pressure;BME280_temperature;BME280_humidity;BME280_pressure;Samples;Min_cycle;Max_cycle;Signal;HPM_P1;HPM_P2
2024/04/02 00:01:02;;;;;;;1999.90;999.90;;;7.70;99.90;;;;;;5027319;28;20035;-77
2024/04/02 00:03:28;;;;;;;1999.90;999.90;;;7.90;99.90;;;;;;5021974;28;20472;-77
2024/04/02 00:05:54;;;;;;;1999.90;999.90;;;7.80;99.90;;;;;;5022303;28;20091;-76
2024/04/02 00:08:19;;;;;;;1999.90;999.90;;;7.80;99.90;;;;;;5022756;28;20112;-78
2024/04/02 00:10:45;;;;;;;1999.90;999.90;;;7.70;99.90;;;;;;5022917;28;20029;-77
2024/04/02 00:13:11;;;;;;;1999.90;999.90;;;7.80;99.90;;;;;;5022765;28;20111;-77
2024/04/02 00:15:36;;;;;;;1999.90;999.90;;;7.70;99.90;;;;;;5024426;28;20057;-78
2024/04/02 00:18:03;;;;;;;1999.90;999.90;;;7.70;99.90;;;;;;5024836;28;20037;-77
2024/04/02 00:20:29;;;;;;;1999.90;999.90;;;7.60;99.90;;;;;;5022993;28;20496;-77
2024/04/02 00:22:55;;;;;;;1999.90;999.90;;;7.60;99.90;;;;;;5021922;28;20044;-76
2024/04/02 00:25:20;;;;;;;1999.90;999.90;;;7.50;99.90;;;;;;5023258;28;20041;-78
2024/04/02 00:27:46;;;;;;;1999.90;999.90;;;7.40;99.90;;;;;;5021725;28;20112;-78
2024/04/02 00:30:23;;;;;;;1999.90;999.90;;;7.50;99.90;;;;;;5022690;28;20060;-77
2024/04/02 00:32:48;;;;;;;;;;;7.70;99.90;;;;;;5022364;28;20029;-78
2024/04/02 00:35:14;;;;;;;1999.90;999.90;;;7.80;99.90;;;;;;5019479;28;19919;-79
2024/04/02 00:37:40;;;;;;;1999.90;999.90;;;7.70;99.90;;;;;;5022549;28;20113;-78
2024/04/02 00:40:06;;;;;;;1999.90;999.90;;;7.70;99.90;;;;;;5019404;28;20049;-80
2024/04/02 00:42:32;;;;;;;1999.90;999.90;;;7.80;99.90;;;;;;5021730;28;20040;-80
2024/04/02 00:44:58;;;;;;;1999.90;999.90;;;7.60;99.90;;;;;;5022707;28;20041;-79
2024/04/02 00:47:24;;;;;;;1999.90;999.90;;;7.50;99.90;;;;;;5021809;28;20850;-78
2024/04/02 00:49:50;;;;;;;1999.90;999.90;;;7.40;99.90;;;;;;5020915;28;20029;-79
2024/04/02 00:52:16;;;;;;;1999.90;999.90;;;7.30;99.90;;;;;;5022634;28;20033;-79
2024/04/02 00:54:43;;;;;;;1999.90;999.90;;;7.20;99.90;;;;;;5021770;28;20052;-79
2024/04/02 00:57:08;;;;;;;1999.90;999.90;;;7.10;99.90;;;;;;5022019;28;20045;-79
2024/04/02 00:59:35;;;;;;;1999.90;999.90;;;6.90;99.90;;;;;;5021932;28;20038;-80
2024/04/02 01:02:02;;;;;;;1999.90;999.90;;;6.80;99.90;;;;;;5021035;28;20027;-79
2024/04/02 01:04:29;;;;;;;1999.90;999.90;;;6.80;99.90;;;;;;5021256;28;20028;-79
2024/04/02 01:06:54;;;;;;;1999.90;999.90;;;6.80;99.90;;;;;;5021647;28;20517;-79
2024/04/02 01:09:20;;;;;;;1999.90;999.90;;;6.70;99.90;;;;;;5024693;28;20102;-78
2024/04/02 01:11:49;;;;;;;1999.90;999.90;;;6.90;99.90;;;;;;5021801;28;20861;-79
2024/04/02 01:14:14;;;;;;;1999.90;999.90;;;7.00;99.90;;;;;;5019293;28;20283;-77
2024/04/02 01:16:44;;;;;;;1999.90;999.90;;;7.20;99.90;;;;;;5021967;28;20485;-78
2024/04/02 01:19:11;;;;;;;1999.90;999.90;;;7.30;99.90;;;;;;5018644;28;20025;-78
2024/04/02 01:21:36;;;;;;;1999.90;999.90;;;7.30;99.90;;;;;;5024435;28;20029;-77
2024/04/02 01:24:03;;;;;;;1999.90;999.90;;;7.20;99.90;;;;;;5021170;28;20040;-78
2024/04/02 01:26:29;;;;;;;1999.90;999.90;;;7.20;99.90;;;;;;5019023;28;20057;-78
2024/04/02 01:28:58;;;;;;;1999.90;999.90;;;7.00;99.90;;;;;;5021050;28;20513;-77
2024/04/02 01:31:27;;;;;;;1999.90;999.90;;;6.90;99.90;;;;;;5025389;28;20061;-77
2024/04/02 01:33:53;;;;;;;1999.90;999.90;;;6.70;99.90;;;;;;5023628;28;20116;-78
2024/04/02 01:36:19;;;;;;;1999.90;999.90;;;6.70;99.90;;;;;;5023958;28;20117;-77
2024/04/02 01:38:44;;;;;;;1999.90;999.90;;;6.60;99.90;;;;;;5024994;28;20041;-77
2024/04/02 01:41:10;;;;;;;1999.90;999.90;;;6.50;99.90;;;;;;5025088;28;20065;-77
2024/04/02 01:43:36;;;;;;;1999.90;999.90;;;6.50;99.90;;;;;;5025421;28;20492;-77
2024/04/02 01:46:02;;;;;;;1999.90;999.90;;;6.60;99.90;;;;;;5024757;28;20025;-77
2024/04/02 01:48:27;;;;;;;1999.90;999.90;;;6.60;99.90;;;;;;5024683;28;20880;-76
2024/04/02 01:50:53;;;;;;;1999.90;999.90;;;6.60;99.90;;;;;;5025543;28;20033;-76
2024/04/02 01:53:19;;;;;;;1999.90;999.90;;;6.70;99.90;;;;;;5025365;28;20121;-77
2024/04/02 01:55:45;;;;;;;1999.90;999.90;;;6.80;99.90;;;;;;5030343;28;20049;-77
2024/04/02 01:58:11;;;;;;;1999.90;999.90;;;6.90;99.90;;;;;;5025508;28;20100;-77
2024/04/02 02:00:36;;;;;;;1999.90;999.90;;;7.10;99.90;;;;;;5026220;28;20029;-76
2024/04/02 02:03:03;;;;;;;1999.90;999.90;;;7.10;99.90;;;;;;5024748;28;20113;-77
2024/04/02 02:05:29;;;;;;;1999.90;999.90;;;7.10;99.90;;;;;;5027313;28;20022;-77
2024/04/02 02:07:55;;;;;;;1999.90;999.90;;;7.10;99.90;;;;;;5029205;28;20052;-77
2024/04/02 02:10:20;;;;;;;1999.90;999.90;;;7.10;99.90;;;;;;5024032;28;20678;-76
2024/04/02 02:12:46;;;;;;;1999.90;999.90;;;7.00;99.90;;;;;;5027835;28;20026;-76
2024/04/02 02:15:12;;;;;;;1999.90;999.90;;;6.90;99.90;;;;;;5025732;28;20029;-77
2024/04/02 02:17:37;;;;;;;1999.90;999.90;;;6.90;99.90;;;;;;5028669;28;20805;-77
2024/04/02 02:20:05;;;;;;;1999.90;999.90;;;7.00;99.90;;;;;;5026697;28;20025;-76
2024/04/02 02:22:31;;;;;;;1999.90;999.90;;;6.80;99.90;;;;;;5025385;28;20519;-76
2024/04/02 02:24:57;;;;;;;1999.90;999.90;;;6.70;99.90;;;;;;5024916;28;20029;-76
2024/04/02 02:27:23;;;;;;;1999.90;999.90;;;6.60;99.90;;;;;;5025185;28;20069;-77
2024/04/02 02:29:48;;;;;;;1999.90;999.90;;;6.50;99.90;;;;;;5023924;28;20029;-77
2024/04/02 02:32:14;;;;;;;1999.90;999.90;;;6.40;99.90;;;;;;5025764;28;20029;-77
2024/04/02 02:34:40;;;;;;;1999.90;999.90;;;6.30;99.90;;;;;;5024143;28;20060;-77
2024/04/02 02:37:06;;;;;;;1999.90;999.90;;;6.30;99.90;;;;;;5022809;28;20045;-76
2024/04/02 02:39:32;;;;;;;1999.90;999.90;;;6.30;99.90;;;;;;5023811;28;20029;-77
2024/04/02 02:41:57;;;;;;;1999.90;999.90;;;6.30;99.90;;;;;;5022483;28;20030;-77
2024/04/02 02:44:23;;;;;;;1999.90;999.90;;;6.30;99.90;;;;;;5024424;28;20033;-76
2024/04/02 02:46:49;;;;;;;1999.90;999.90;;;6.40;99.90;;;;;;5024413;28;20029;-76
2024/04/02 02:49:14;;;;;;;1999.90;999.90;;;6.60;99.90;;;;;;5023922;28;20108;-77
2024/04/02 02:51:40;;;;;;;1999.90;999.90;;;6.40;99.90;;;;;;5025145;28;20037;-77
2024/04/02 02:54:06;;;;;;;1999.90;999.90;;;6.30;99.90;;;;;;5021240;28;20037;-77
2024/04/02 02:56:31;;;;;;;1999.90;999.90;;;6.20;99.90;;;;;;5023313;28;20128;-77
2024/04/02 02:58:57;;;;;;;1999.90;999.90;;;6.20;99.90;;;;;;5024469;28;20038;-77
2024/04/02 03:01:23;;;;;;;1999.90;999.90;;;6.10;99.90;;;;;;5023595;28;20038;-76
2024/04/02 03:03:51;;;;;;;1999.90;999.90;;;6.10;99.90;;;;;;5023925;28;20276;-80
2024/04/02 03:06:17;;;;;;;1999.90;999.90;;;6.10;99.90;;;;;;5054200;28;20048;-78
2024/04/02 03:08:43;;;;;;;1999.90;999.90;;;6.10;99.90;;;;;;5031969;28;20064;-77
2024/04/02 03:11:09;;;;;;;1999.90;999.90;;;6.10;99.90;;;;;;5024279;28;20108;-76
2024/04/02 03:13:35;;;;;;;1999.90;999.90;;;6.10;99.90;;;;;;5023860;28;20030;-78
2024/04/02 03:16:03;;;;;;;1999.90;999.90;;;6.10;99.90;;;;;;5023746;28;20592;-77
2024/04/02 03:18:29;;;;;;;1999.90;999.90;;;6.10;99.90;;;;;;5026083;28;20039;-76
2024/04/02 03:20:55;;;;;;;1999.90;999.90;;;6.10;99.90;;;;;;5023590;28;20029;-77
2024/04/02 03:23:21;;;;;;;1999.90;999.90;;;6.00;99.90;;;;;;5019428;28;20040;-76
2024/04/02 03:26:00;;;;;;;1999.90;999.90;;;6.00;99.90;;;;;;5021868;28;20041;-76
2024/04/02 03:28:27;;;;;;;1999.90;999.90;;;6.00;99.90;;;;;;5022788;28;20029;-77
2024/04/02 03:31:11;;;;;;;1999.90;999.90;;;6.00;99.90;;;;;;5022539;28;20879;-76
2024/04/02 03:33:36;;;;;;;1999.90;999.90;;;5.90;99.90;;;;;;5022682;28;20602;-75
2024/04/02 03:36:06;;;;;;;1999.90;999.90;;;5.90;99.90;;;;;;5022152;28;20029;-75
2024/04/02 03:38:33;;;;;;;1999.90;999.90;;;5.90;99.90;;;;;;5022795;28;20030;-75
2024/04/02 03:41:13;;;;;;;1999.90;999.90;;;5.90;99.90;;;;;;5022566;28;20029;-75
2024/04/02 03:43:43;;;;;;;1999.90;999.90;;;5.90;99.90;;;;;;5023036;28;20029;-76
2024/04/02 03:46:10;;;;;;;1999.90;999.90;;;5.90;99.90;;;;;;5026198;28;20025;-76
2024/04/02 03:48:36;;;;;;;1999.90;999.90;;;6.10;99.90;;;;;;5025137;28;20112;-76
2024/04/02 03:51:02;;;;;;;1999.90;999.90;;;6.30;99.90;;;;;;5022776;28;20108;-77
2024/04/02 03:53:28;;;;;;;1999.90;999.90;;;6.20;99.90;;;;;;5022321;28;20116;-75
2024/04/02 03:56:02;;;;;;;1999.90;999.90;;;6.20;99.90;;;;;;5021648;28;20587;-76
2024/04/02 03:58:29;;;;;;;1999.90;999.90;;;6.10;99.90;;;;;;5016618;28;20049;-76
2024/04/02 04:00:56;;;;;;;1999.90;999.90;;;6.00;99.90;;;;;;5022719;28;20021;-75
2024/04/02 04:03:22;;;;;;;1999.90;999.90;;;6.00;99.90;;;;;;5023004;28;20044;-73
2024/04/02 04:05:59;;;;;;;1999.90;999.90;;;6.10;99.90;;;;;;5022594;28;20025;-75
2024/04/02 04:08:29;;;;;;;1999.90;999.90;;;6.10;99.90;;;;;;5025462;28;20086;-74
2024/04/02 04:10:55;;;;;;;1999.90;999.90;;;6.40;99.90;;;;;;5021486;28;20017;-75
2024/04/02 04:13:21;;;;;;;1999.90;999.90;;;6.40;99.90;;;;;;5022785;28;20056;-75
2024/04/02 04:15:55;;;;;;;1999.90;999.90;;;6.50;99.90;;;;;;5022367;28;20075;-74
2024/04/02 04:18:22;;;;;;;1999.90;999.90;;;6.60;99.90;;;;;;5022377;28;20073;-73
2024/04/02 04:20:52;;;;;;;1999.90;999.90;;;6.50;99.90;;;;;;5022640;28;20040;-77
2024/04/02 04:23:18;;;;;;;1999.90;999.90;;;6.60;99.90;;;;;;5023279;28;20033;-77
2024/04/02 04:25:44;;;;;;;1999.90;999.90;;;6.60;99.90;;;;;;5021750;28;20036;-74
2024/04/02 04:28:10;;;;;;;1999.90;999.90;;;6.50;99.90;;;;;;5022680;28;20036;-75
2024/04/02 04:30:35;;;;;;;1999.90;999.90;;;6.50;99.90;;;;;;5023661;28;20036;-73
2024/04/02 04:33:02;;;;;;;1999.90;999.90;;;6.50;99.90;;;;;;5021336;28;20575;-74
2024/04/02 04:35:30;;;;;;;1999.90;999.90;;;6.50;99.90;;;;;;5019520;28;20037;-75
2024/04/02 04:37:56;;;;;;;1999.90;999.90;;;6.60;99.90;;;;;;5021143;28;20033;-74
2024/04/02 04:40:22;;;;;;;1999.90;999.90;;;6.70;99.90;;;;;;5021970;28;20508;-75
2024/04/02 04:42:47;;;;;;;1999.90;999.90;;;6.70;99.90;;;;;;5021868;28;21065;-74
2024/04/02 04:45:13;;;;;;;1999.90;999.90;;;6.80;99.90;;;;;;5015192;28;20033;-75
2024/04/02 04:47:39;;;;;;;1999.90;999.90;;;6.80;99.90;;;;;;5017669;28;20539;-76
2024/04/02 04:50:05;;;;;;;1999.90;999.90;;;6.80;99.90;;;;;;5021797;28;20021;-77
2024/04/02 04:52:30;;;;;;;1999.90;999.90;;;6.90;99.90;;;;;;5020953;28;20029;-76
2024/04/02 04:54:56;;;;;;;1999.90;999.90;;;7.00;99.90;;;;;;5020592;28;20095;-76
2024/04/02 04:57:22;;;;;;;1999.90;999.90;;;6.90;99.90;;;;;;5026304;28;20052;-76
2024/04/02 04:59:47;;;;;;;1999.90;999.90;;;7.00;99.90;;;;;;5021245;28;20033;-76
2024/04/02 05:02:13;;;;;;;1999.90;999.90;;;6.90;99.90;;;;;;5021019;28;20037;-77
2024/04/02 05:04:39;;;;;;;1999.90;999.90;;;7.10;99.90;;;;;;5021005;28;20037;-77
2024/04/02 05:07:24;;;;;;;1999.90;999.90;;;6.90;99.90;;;;;;5021928;28;20037;-79
2024/04/02 05:09:51;;;;;;;1999.90;999.90;;;6.90;99.90;;;;;;5019222;28;20112;-77
2024/04/02 05:12:17;;;;;;;1999.90;999.90;;;6.90;99.90;;;;;;5019571;28;20112;-78
2024/04/02 05:14:43;;;;;;;1999.90;999.90;;;7.00;99.90;;;;;;5022148;28;20029;-77
2024/04/02 05:17:09;;;;;;;1999.90;999.90;;;7.00;99.90;;;;;;5024227;28;20037;-78
2024/04/02 05:19:34;;;;;;;1999.90;999.90;;;7.00;99.90;;;;;;5022375;28;20037;-77
2024/04/02 05:22:00;;;;;;;1999.90;999.90;;;6.90;99.90;;;;;;5022280;28;20034;-75
2024/04/02 05:24:26;;;;;;;1999.90;999.90;;;7.00;99.90;;;;;;5021354;28;20037;-77
2024/04/02 05:26:51;;;;;;;1999.90;999.90;;;7.00;99.90;;;;;;5024166;28;20485;-77
2024/04/02 05:29:17;;;;;;;1999.90;999.90;;;7.10;99.90;;;;;;5021391;28;20099;-77
2024/04/02 05:31:43;;;;;;;1999.90;999.90;;;7.10;99.90;;;;;;5021991;28;20895;-77
2024/04/02 05:34:09;;;;;;;1999.90;999.90;;;7.00;99.90;;;;;;5021244;28;20113;-77
2024/04/02 05:36:35;;;;;;;1999.90;999.90;;;7.00;99.90;;;;;;5021628;28;20351;-78
2024/04/02 05:39:01;;;;;;;1999.90;999.90;;;6.80;99.90;;;;;;5021304;28;20065;-77
2024/04/02 05:41:26;;;;;;;1999.90;999.90;;;6.90;99.90;;;;;;5024733;28;20030;-77
2024/04/02 05:43:52;;;;;;;1999.90;999.90;;;7.00;99.90;;;;;;5020844;28;20024;-77
2024/04/02 05:46:18;;;;;;;1999.90;999.90;;;7.00;99.90;;;;;;5020873;28;20036;-76
2024/04/02 05:48:47;;;;;;;1999.90;999.90;;;6.90;99.90;;;;;;5021032;28;20037;-77
2024/04/02 05:51:13;;;;;;;1999.90;999.90;;;6.70;99.90;;;;;;5020699;28;20029;-77
2024/04/02 05:53:39;;;;;;;1999.90;999.90;;;6.80;99.90;;;;;;5021579;28;20040;-77
2024/04/02 05:56:05;;;;;;;1999.90;999.90;;;6.70;99.90;;;;;;5021701;28;20707;-77
2024/04/02 05:58:31;;;;;;;;;;;6.60;99.90;;;;;;5021707;28;20038;-76
2024/04/02 06:01:07;;;;;;;1999.90;999.90;;;6.80;99.90;;;;;;5028114;28;19931;-76
2024/04/02 06:03:33;;;;;;;1999.90;999.90;;;6.80;99.90;;;;;;5021407;28;20036;-77
2024/04/02 06:05:59;;;;;;;1999.90;999.90;;;6.90;99.90;;;;;;5019955;28;20392;-77
2024/04/02 06:08:25;;;;;;;1999.90;999.90;;;7.10;99.90;;;;;;5023117;28;20448;-77
2024/04/02 06:10:51;;;;;;;1999.90;999.90;;;7.30;99.90;;;;;;5019130;28;20444;-77
2024/04/02 06:13:17;;;;;;;1999.90;999.90;;;7.70;99.90;;;;;;5021572;28;20029;-77
2024/04/02 06:15:43;;;;;;;1999.90;999.90;;;7.60;99.90;;;;;;5022081;28;20030;-77
2024/04/02 06:18:09;;;;;;;1999.90;999.90;;;7.40;99.90;;;;;;5021413;28;20328;-76
2024/04/02 06:20:35;;;;;;;1999.90;999.90;;;7.30;99.90;;;;;;5023562;28;20691;-76
2024/04/02 06:23:01;;;;;;;1999.90;999.90;;;7.30;99.90;;;;;;5026148;28;20025;-78
2024/04/02 06:25:27;;;;;;;1999.90;999.90;;;7.30;99.90;;;;;;5021220;28;20037;-77
2024/04/02 06:27:52;;;;;;;1999.90;999.90;;;7.10;99.90;;;;;;5024049;28;20055;-77
2024/04/02 06:30:18;;;;;;;1999.90;999.90;;;7.20;99.90;;;;;;5024705;28;20048;-77
2024/04/02 06:32:44;;;;;;;1999.90;999.90;;;7.30;99.90;;;;;;5023150;28;20025;-77
2024/04/02 06:35:10;;;;;;;1999.90;999.90;;;7.20;99.90;;;;;;5028916;28;20037;-77
2024/04/02 06:37:35;;;;;;;1999.90;999.90;;;7.40;99.90;;;;;;5024423;28;20056;-77
2024/04/02 06:40:01;;;;;;;1999.90;999.90;;;8.00;99.90;;;;;;5024635;28;20025;-77
2024/04/02 06:42:27;;;;;;;1999.90;999.90;;;10.00;96.10;;;;;;5024864;28;20029;-77
2024/04/02 06:44:55;;;;;;;1999.90;999.90;;;11.00;93.10;;;;;;5024904;28;20112;-77
2024/04/02 06:47:21;;;;;;;1999.90;999.90;;;11.90;90.80;;;;;;5024475;28;20033;-77
2024/04/02 06:49:46;;;;;;;1999.90;999.90;;;12.60;87.80;;;;;;5025236;28;20750;-77
2024/04/02 06:52:12;;;;;;;1999.90;999.90;;;12.80;85.40;;;;;;5024293;28;20037;-77
2024/04/02 06:54:38;;;;;;;1999.90;999.90;;;13.90;82.50;;;;;;5024314;28;20792;-78
2024/04/02 06:57:04;;;;;;;1999.90;999.90;;;15.00;77.90;;;;;;5024815;28;20053;-77
2024/04/02 06:59:29;;;;;;;1999.90;999.90;;;12.70;80.60;;;;;;5024992;28;20041;-77
2024/04/02 07:01:55;;;;;;;1999.90;999.90;;;12.10;87.10;;;;;;5024880;28;20036;-78
2024/04/02 07:04:21;;;;;;;1999.90;999.90;;;14.60;80.30;;;;;;5024543;28;20036;-78
2024/04/02 07:06:46;;;;;;;1999.90;999.90;;;16.00;75.40;;;;;;5024529;28;20109;-78
2024/04/02 07:09:12;;;;;;;1999.90;999.90;;;14.90;73.00;;;;;;5029152;28;20091;-78
2024/04/02 07:11:38;;;;;;;1999.90;999.90;;;15.80;73.30;;;;;;5026997;28;20021;-78
2024/04/02 07:14:04;;;;;;;1999.90;999.90;;;14.80;72.90;;;;;;5024523;28;20112;-78
2024/04/02 07:16:29;;;;;;;1999.90;999.90;;;13.80;76.90;;;;;;5024258;28;20266;-77
2024/04/02 07:18:55;;;;;;;1999.90;999.90;;;12.90;76.80;;;;;;5021832;28;20061;-78
2024/04/02 07:21:21;;;;;;;1999.90;999.90;;;13.10;81.40;;;;;;5024037;28;20040;-78
2024/04/02 07:23:47;;;;;;;1999.90;999.90;;;15.10;74.80;;;;;;5023590;28;20025;-78
2024/04/02 07:26:12;;;;;;;1999.90;999.90;;;16.30;71.40;;;;;;5024599;28;20029;-78
2024/04/02 07:28:39;;;;;;;1999.90;999.90;;;17.00;67.80;;;;;;5022332;28;20040;-78
2024/04/02 07:31:04;;;;;;;1999.90;999.90;;;17.00;66.70;;;;;;5027697;28;20033;-78
2024/04/02 07:33:30;;;;;;;1999.90;999.90;;;15.90;68.30;;;;;;5019172;28;20870;-78
2024/04/02 07:35:56;;;;;;;1999.90;999.90;;;15.30;70.60;;;;;;5023895;28;20283;-78
2024/04/02 07:38:22;;;;;;;1999.90;999.90;;;16.60;69.10;;;;;;5021382;28;20029;-78
2024/04/02 07:40:48;;;;;;;1999.90;999.90;;;17.60;64.80;;;;;;5021455;28;20030;-78
2024/04/02 07:43:13;;;;;;;1999.90;999.90;;;17.60;64.80;;;;;;5024293;28;20399;-78
2024/04/02 07:45:39;;;;;;;1999.90;999.90;;;17.50;62.00;;;;;;5023747;28;20033;-78
2024/04/02 07:48:06;;;;;;;1999.90;999.90;;;18.30;62.00;;;;;;5023540;28;20037;-78
2024/04/02 07:50:34;;;;;;;1999.90;999.90;;;19.20;58.80;;;;;;5022911;28;20095;-78
2024/04/02 07:53:00;;;;;;;1999.90;999.90;;;20.40;57.40;;;;;;5022259;28;20529;-78
2024/04/02 07:55:26;;;;;;;1999.90;999.90;;;19.40;57.80;;;;;;5022819;28;20045;-78
2024/04/02 07:57:52;;;;;;;1999.90;999.90;;;18.50;59.00;;;;;;5031117;28;20037;-77
2024/04/02 08:00:18;;;;;;;1999.90;999.90;;;18.30;58.50;;;;;;5023713;28;20100;-78
2024/04/02 08:02:46;;;;;;;1999.90;999.90;;;18.70;58.00;;;;;;5023896;28;20108;-78
2024/04/02 08:05:13;;;;;;;1999.90;999.90;;;19.90;56.90;;;;;;5023965;28;20040;-78
2024/04/02 08:07:38;;;;;;;1999.90;999.90;;;18.50;56.30;;;;;;5024623;28;20021;-78
2024/04/02 08:10:04;;;;;;;1999.90;999.90;;;19.00;56.50;;;;;;5021064;28;20557;-78
2024/04/02 08:12:30;;;;;;;1999.90;999.90;;;19.10;54.10;;;;;;5019323;28;20032;-78
2024/04/02 08:14:56;;;;;;;1999.90;999.90;;;17.40;58.20;;;;;;5022911;28;20056;-78
2024/04/02 08:17:22;;;;;;;1999.90;999.90;;;17.60;58.40;;;;;;5024710;28;20576;-78
2024/04/02 08:19:47;;;;;;;1999.90;999.90;;;19.20;56.50;;;;;;5022549;28;20767;-78
2024/04/02 08:22:14;;;;;;;1999.90;999.90;;;20.10;52.30;;;;;;5022656;28;20248;-78
2024/04/02 08:24:39;;;;;;;1999.90;999.90;;;19.20;53.70;;;;;;5022516;28;20025;-78
2024/04/02 08:27:06;;;;;;;1999.90;999.90;;;20.90;53.10;;;;;;5022889;28;20148;-78
2024/04/02 08:29:31;;;;;;;;;;;20.80;49.20;;;;;;5023704;28;20033;-78
2024/04/02 08:31:57;;;;;;;1999.90;999.90;;;21.00;50.60;;;;;;5022984;28;19963;-78
2024/04/02 08:34:23;;;;;;;1999.90;999.90;;;20.10;51.80;;;;;;5021964;28;20087;-78
2024/04/02 08:36:48;;;;;;;1999.90;999.90;;;20.60;52.70;;;;;;5022267;28;20385;-78
2024/04/02 08:39:14;;;;;;;1999.90;999.90;;;21.70;51.60;;;;;;5020603;28;20080;-78
2024/04/02 08:41:41;;;;;;;1999.90;999.90;;;22.20;48.40;;;;;;5022778;28;20844;-78
2024/04/02 08:44:07;;;;;;;1999.90;999.90;;;22.70;48.60;;;;;;5023292;28;20057;-78
2024/04/02 08:46:33;;;;;;;1999.90;999.90;;;21.80;47.90;;;;;;5022473;28;20115;-78
2024/04/02 08:48:59;;;;;;;1999.90;999.90;;;20.10;49.40;;;;;;5022061;28;20116;-78
2024/04/02 08:51:27;;;;;;;1999.90;999.90;;;20.80;50.10;;;;;;5023153;28;20029;-78
2024/04/02 08:53:53;;;;;;;1999.90;999.90;;;21.80;48.40;;;;;;5022593;28;20443;-78
2024/04/02 08:56:19;;;;;;;1999.90;999.90;;;21.70;48.50;;;;;;5028046;28;20096;-78
2024/04/02 08:58:47;;;;;;;1999.90;999.90;;;21.60;48.00;;;;;;5022085;28;20071;-78
2024/04/02 09:01:13;;;;;;;1999.90;999.90;;;22.10;48.50;;;;;;5022505;28;20034;-78
2024/04/02 09:03:39;;;;;;;1999.90;999.90;;;23.20;46.30;;;;;;5026461;28;20110;-78
2024/04/02 09:06:06;;;;;;;1999.90;999.90;;;23.50;45.10;;;;;;5022588;28;20075;-78
2024/04/02 09:08:43;;;;;;;1999.90;999.90;;;23.40;47.10;;;;;;5024348;28;20041;-78
2024/04/02 09:11:08;;;;;;;1999.90;999.90;;;20.60;48.50;;;;;;5024315;28;20020;-78
2024/04/02 09:13:34;;;;;;;1999.90;999.90;;;21.40;47.80;;;;;;5022719;28;20029;-78
2024/04/02 09:16:00;;;;;;;1999.90;999.90;;;21.10;48.00;;;;;;5022495;28;20033;-78
2024/04/02 09:18:30;;;;;;;1999.90;999.90;;;22.20;44.60;;;;;;5024184;28;20037;-78
2024/04/02 09:20:58;;;;;;;1999.90;999.90;;;21.60;46.00;;;;;;5029694;28;20453;-77
2024/04/02 09:23:24;;;;;;;1999.90;999.90;;;20.50;48.50;;;;;;5021326;28;20025;-78
2024/04/02 09:25:50;;;;;;;1999.90;999.90;;;21.10;49.50;;;;;;5027378;28;20056;-78
2024/04/02 09:28:16;;;;;;;1999.90;999.90;;;21.90;46.60;;;;;;5028136;28;20515;-78
2024/04/02 09:30:42;;;;;;;1999.90;999.90;;;21.80;43.70;;;;;;5021735;28;20103;-77
2024/04/02 09:33:09;;;;;;;1999.90;999.90;;;20.60;47.00;;;;;;5021862;28;20891;-78
2024/04/02 09:35:56;;;;;;;1999.90;999.90;;;21.00;47.30;;;;;;5018614;28;20030;-77
2024/04/02 09:38:23;;;;;;;1999.90;999.90;;;21.50;45.80;;;;;;5020969;28;20033;-77
2024/04/02 09:40:51;;;;;;;1999.90;999.90;;;21.10;43.20;;;;;;5024679;28;20061;-78
2024/04/02 09:43:20;;;;;;;1999.90;999.90;;;22.60;45.00;;;;;;5022201;28;20037;-78
2024/04/02 09:45:48;;;;;;;1999.90;999.90;;;22.00;45.00;;;;;;5020164;28;20022;-78
2024/04/02 09:48:16;;;;;;;1999.90;999.90;;;22.00;43.60;;;;;;5021832;28;20778;-77
2024/04/02 09:50:43;;;;;;;1999.90;999.90;;;21.30;46.50;;;;;;5022294;28;20040;-78
2024/04/02 09:53:10;;;;;;;1999.90;999.90;;;22.90;44.10;;;;;;5025472;28;20477;-77
2024/04/02 09:55:36;;;;;;;1999.90;999.90;;;24.20;42.30;;;;;;5025383;28;20059;-78
2024/04/02 09:58:02;;;;;;;1999.90;999.90;;;21.60;42.40;;;;;;5025284;28;20102;-77
2024/04/02 10:00:31;;;;;;;1999.90;999.90;;;22.40;40.70;;;;;;5025109;28;20128;-78
2024/04/02 10:02:59;;;;;;;1999.90;999.90;;;22.40;40.70;;;;;;5021633;28;21139;-78
2024/04/02 10:05:26;;;;;;;1999.90;999.90;;;23.40;41.60;;;;;;5025594;28;20025;-77
2024/04/02 10:07:52;;;;;;;1999.90;999.90;;;20.10;43.40;;;;;;5023668;28;20095;-77
2024/04/02 10:10:18;;;;;;;1999.90;999.90;;;21.20;44.80;;;;;;5026614;28;20144;-77
2024/04/02 10:12:52;;;;;;;1999.90;999.90;;;20.00;44.30;;;;;;5024139;28;20033;-78
2024/04/02 10:15:18;;;;;;;1999.90;999.90;;;18.80;47.20;;;;;;5025506;28;20022;-78
2024/04/02 10:17:44;;;;;;;1999.90;999.90;;;17.70;50.10;;;;;;5026561;28;20033;-77
2024/04/02 10:20:26;;;;;;;1999.90;999.90;;;18.60;50.80;;;;;;5025623;28;20040;-77
2024/04/02 10:22:53;;;;;;;1999.90;999.90;;;18.80;47.30;;;;;;5026639;28;20018;-77
2024/04/02 10:25:19;;;;;;;1999.90;999.90;;;17.70;48.30;;;;;;5025616;28;20029;-77
2024/04/02 10:27:47;;;;;;;1999.90;999.90;;;18.10;47.90;;;;;;5028673;28;20420;-77
2024/04/02 10:30:26;;;;;;;1999.90;999.90;;;18.20;49.70;;;;;;5027312;28;20035;-77
2024/04/02 10:32:56;;;;;;;1999.90;999.90;;;18.30;53.00;;;;;;5020970;28;20032;-77
2024/04/02 10:35:24;;;;;;;1999.90;999.90;;;18.70;51.90;;;;;;5023146;28;20087;-77
2024/04/02 10:37:52;;;;;;;1999.90;999.90;;;17.50;49.20;;;;;;5023659;28;20552;-77
2024/04/02 10:40:18;;;;;;;1999.90;999.90;;;18.00;48.30;;;;;;5024995;28;20033;-78
2024/04/02 10:42:48;;;;;;;1999.90;999.90;;;17.40;48.00;;;;;;5025095;28;20595;-77
2024/04/02 10:45:18;;;;;;;1999.90;999.90;;;17.10;56.00;;;;;;5028837;28;20034;-78
2024/04/02 10:47:50;;;;;;;1999.90;999.90;;;16.90;53.10;;;;;;5024232;28;20706;-78
2024/04/02 10:50:18;;;;;;;1999.90;999.90;;;16.80;52.90;;;;;;5024458;28;20083;-78
2024/04/02 10:52:43;;;;;;;1999.90;999.90;;;17.00;52.50;;;;;;5024508;28;20032;-78
2024/04/02 10:55:10;;;;;;;1999.90;999.90;;;17.10;50.20;;;;;;5024147;28;20033;-78
2024/04/02 10:57:36;;;;;;;;;;;16.90;52.70;;;;;;5025137;28;20045;-78
2024/04/02 11:00:04;;;;;;;1999.90;999.90;;;16.60;52.10;;;;;;5024710;28;20011;-78
2024/04/02 11:02:31;;;;;;;1999.90;999.90;;;16.80;50.60;;;;;;5023760;28;20034;-78
2024/04/02 11:04:57;;;;;;;;;;;17.20;51.50;;;;;;5028604;28;20025;-78
2024/04/02 11:07:25;;;;;;;1999.90;999.90;;;17.30;55.00;;;;;;5024378;28;20384;-78
2024/04/02 11:09:51;;;;;;;1999.90;999.90;;;16.90;52.70;;;;;;5028314;28;20531;-78
2024/04/02 11:12:17;;;;;;;1999.90;999.90;;;16.60;53.90;;;;;;5021077;28;20033;-78
2024/04/02 11:14:43;;;;;;;1999.90;999.90;;;16.40;50.90;;;;;;5024345;28;20029;-78
2024/04/02 11:17:09;;;;;;;1999.90;999.90;;;16.40;52.10;;;;;;5025223;28;20022;-78
2024/04/02 11:19:36;;;;;;;1999.90;999.90;;;16.30;52.50;;;;;;5024308;28;20141;-78
2024/04/02 11:25:03;;;;;;;1999.90;999.90;;;16.80;53.10;;;;;;5023653;28;20155;-78
2024/04/02 11:27:30;;;;;;;1999.90;999.90;;;16.80;52.40;;;;;;5025653;28;20866;-77
2024/04/02 11:29:56;;;;;;;1999.90;999.90;;;16.60;51.60;;;;;;5024847;28;20025;-77
2024/04/02 11:32:22;;;;;;;1999.90;999.90;;;16.70;53.80;;;;;;5023411;28;20499;-78
2024/04/02 11:35:02;;;;;;;1999.90;999.90;;;16.60;50.90;;;;;;5019837;28;20099;-78
2024/04/02 11:37:29;;;;;;;1999.90;999.90;;;16.70;54.40;;;;;;5020170;28;20045;-78
2024/04/02 11:39:55;;;;;;;1999.90;999.90;;;16.40;51.90;;;;;;5025527;28;20232;-77
2024/04/02 11:42:22;;;;;;;1999.90;999.90;;;15.90;50.60;;;;;;5026046;28;20025;-77
2024/04/02 11:44:47;;;;;;;;;;;16.00;56.50;;;;;;5026371;28;20037;-77
2024/04/02 11:47:13;;;;;;;1999.90;999.90;;;16.10;54.00;;;;;;5024151;28;19916;-77
2024/04/02 11:49:42;;;;;;;1999.90;999.90;;;15.60;52.10;;;;;;5024147;28;20029;-77
2024/04/02 11:52:09;;;;;;;1999.90;999.90;;;15.60;55.30;;;;;;5024147;28;20101;-77
2024/04/02 11:54:35;;;;;;;1999.90;999.90;;;15.80;56.10;;;;;;5023234;28;20037;-78
2024/04/02 12:02:48;;;;;;;1999.90;999.90;;;15.60;53.10;;;;;;5010409;28;20037;-77
2024/04/02 12:05:15;;;;;;;1999.90;999.90;;;15.80;55.70;;;;;;5023866;28;20029;-78
2024/04/02 12:07:42;;;;;;;1999.90;999.90;;;15.90;54.90;;;;;;5029734;28;20049;-77
2024/04/02 12:10:09;;;;;;;1999.90;999.90;;;15.90;57.80;;;;;;5025029;28;20037;-78
2024/04/02 12:12:36;;;;;;;1999.90;999.90;;;16.00;57.50;;;;;;5021010;28;20030;-78